VOZ1368 YMML-YMLT
Flight info
| Callsign | VOZ1368 |
|---|---|
| Flight time | 0h 52m |
| Altitude | 31000 |
| Route | N0411F310 DCT SUNTI H169 IRSOM W105 LT DCT |
| Aircraft | B738/M-SAE3DGHIJ4J5M1RWZ/LB1 |
Departure
| Time | 2026-05-05 06:48 |
|---|---|
| Airport | Melbourne Airport (YMML) |
Arrival
| Time | 2026-05-05 07:40 |
|---|---|
| Airport | Launceston Airport (YMLT) |
| Time | Latitude | Longitude | Altitude | Speed | Heading |
|---|---|---|---|---|---|
| 2026-05-05 05:48 | -37.67262 | 144.84767 | 386 ft | 0 kts | 172° |
| 2026-05-05 06:36 | -37.67254 | 144.84766 | 386 ft | 4 kts | 171° |
| 2026-05-05 06:36 | -37.67227 | 144.84760 | 387 ft | 4 kts | 169° |
| 2026-05-05 06:36 | -37.67200 | 144.84754 | 388 ft | 4 kts | 178° |
| 2026-05-05 06:36 | -37.67196 | 144.84753 | 388 ft | 4 kts | 187° |
| 2026-05-05 06:37 | -37.67211 | 144.84733 | 387 ft | 4 kts | 248° |
| 2026-05-05 06:37 | -37.67207 | 144.84703 | 387 ft | 4 kts | 292° |
| 2026-05-05 06:37 | -37.67200 | 144.84676 | 387 ft | 4 kts | 279° |
| 2026-05-05 06:37 | -37.67200 | 144.84643 | 386 ft | 4 kts | 268° |
| 2026-05-05 06:38 | -37.67202 | 144.84609 | 385 ft | 4 kts | 264° |
| 2026-05-05 06:38 | -37.67206 | 144.84575 | 385 ft | 4 kts | 262° |
| 2026-05-05 06:38 | -37.67207 | 144.84565 | 385 ft | 1 kts | 261° |
| 2026-05-05 06:40 | -37.67208 | 144.84557 | 385 ft | 3 kts | 261° |
| 2026-05-05 06:41 | -37.67211 | 144.84533 | 384 ft | 5 kts | 261° |
| 2026-05-05 06:41 | -37.67205 | 144.84474 | 384 ft | 9 kts | 282° |
| 2026-05-05 06:41 | -37.67201 | 144.84393 | 383 ft | 9 kts | 268° |
| 2026-05-05 06:41 | -37.67195 | 144.84289 | 381 ft | 13 kts | 304° |
| 2026-05-05 06:42 | -37.67114 | 144.84253 | 382 ft | 13 kts | 351° |
| 2026-05-05 06:42 | -37.67029 | 144.84237 | 384 ft | 12 kts | 351° |
| 2026-05-05 06:42 | -37.66947 | 144.84222 | 386 ft | 12 kts | 352° |
| 2026-05-05 06:42 | -37.66866 | 144.84207 | 389 ft | 12 kts | 351° |
| 2026-05-05 06:43 | -37.66788 | 144.84192 | 391 ft | 11 kts | 351° |
| 2026-05-05 06:43 | -37.66711 | 144.84177 | 394 ft | 11 kts | 351° |
| 2026-05-05 06:43 | -37.66637 | 144.84165 | 393 ft | 11 kts | 1° |
| 2026-05-05 06:43 | -37.66569 | 144.84198 | 401 ft | 10 kts | 36° |
| 2026-05-05 06:44 | -37.66532 | 144.84272 | 402 ft | 10 kts | 79° |
| 2026-05-05 06:44 | -37.66522 | 144.84358 | 402 ft | 10 kts | 81° |
| 2026-05-05 06:44 | -37.66512 | 144.84442 | 403 ft | 10 kts | 81° |
| 2026-05-05 06:44 | -37.66502 | 144.84524 | 402 ft | 9 kts | 81° |
| 2026-05-05 06:45 | -37.66493 | 144.84604 | 405 ft | 10 kts | 82° |
| 2026-05-05 06:45 | -37.66481 | 144.84694 | 406 ft | 11 kts | 71° |
| 2026-05-05 06:45 | -37.66427 | 144.84767 | 405 ft | 12 kts | 28° |
| 2026-05-05 06:45 | -37.66353 | 144.84781 | 411 ft | 6 kts | 8° |
| 2026-05-05 06:46 | -37.66310 | 144.84789 | 410 ft | 6 kts | 6° |
| 2026-05-05 06:46 | -37.66265 | 144.84794 | 412 ft | 7 kts | 5° |
| 2026-05-05 06:46 | -37.66225 | 144.84756 | 412 ft | 7 kts | 277° |
| 2026-05-05 06:46 | -37.66220 | 144.84687 | 412 ft | 8 kts | 274° |
| 2026-05-05 06:47 | -37.66216 | 144.84616 | 409 ft | 8 kts | 275° |
| 2026-05-05 06:47 | -37.66207 | 144.84460 | 410 ft | 47 kts | 274° |
| 2026-05-05 06:47 | -37.66162 | 144.83670 | 415 ft | 130 kts | 274° |
| 2026-05-05 06:47 | -37.66096 | 144.82294 | 795 ft | 167 kts | 268° |
| 2026-05-05 06:48 | -37.66116 | 144.80811 | 1862 ft | 171 kts | 269° |
| 2026-05-05 06:48 | -37.66010 | 144.79263 | 2471 ft | 191 kts | 274° |
| 2026-05-05 06:48 | -37.65859 | 144.77517 | 2954 ft | 204 kts | 275° |
| 2026-05-05 06:48 | -37.65705 | 144.75650 | 3242 ft | 227 kts | 274° |
| 2026-05-05 06:49 | -37.65578 | 144.73577 | 3662 ft | 247 kts | 272° |
| 2026-05-05 06:49 | -37.65550 | 144.71366 | 4462 ft | 254 kts | 260° |
| 2026-05-05 06:49 | -37.66232 | 144.69317 | 5408 ft | 257 kts | 235° |
| 2026-05-05 06:49 | -37.67511 | 144.67726 | 6297 ft | 261 kts | 216° |
| 2026-05-05 06:50 | -37.69061 | 144.66475 | 7152 ft | 266 kts | 212° |
| 2026-05-05 06:50 | -37.70779 | 144.65663 | 8066 ft | 270 kts | 185° |
| 2026-05-05 06:50 | -37.72364 | 144.66005 | 8834 ft | 277 kts | 160° |
| 2026-05-05 06:50 | -37.74090 | 144.67140 | 9719 ft | 283 kts | 155° |
| 2026-05-05 06:51 | -37.75832 | 144.68367 | 10461 ft | 293 kts | 154° |
| 2026-05-05 06:51 | -37.76576 | 144.68894 | 10570 ft | 303 kts | 154° |
| 2026-05-05 06:51 | -37.77225 | 144.69355 | 10626 ft | 313 kts | 154° |
| 2026-05-05 06:51 | -37.79180 | 144.70739 | 10832 ft | 336 kts | 154° |
| 2026-05-05 06:52 | -37.81249 | 144.72203 | 11322 ft | 347 kts | 154° |
| 2026-05-05 06:52 | -37.83374 | 144.73706 | 12064 ft | 351 kts | 154° |
| 2026-05-05 06:52 | -37.85481 | 144.75197 | 12816 ft | 354 kts | 154° |
| 2026-05-05 06:52 | -37.87620 | 144.76703 | 13571 ft | 355 kts | 154° |
| 2026-05-05 06:53 | -37.89804 | 144.78240 | 14179 ft | 363 kts | 154° |
| 2026-05-05 06:53 | -37.92023 | 144.79795 | 14871 ft | 366 kts | 154° |
| 2026-05-05 06:53 | -37.94256 | 144.81364 | 15561 ft | 368 kts | 154° |
| 2026-05-05 06:53 | -37.96508 | 144.82944 | 16184 ft | 373 kts | 154° |
| 2026-05-05 06:54 | -37.98800 | 144.84557 | 16863 ft | 376 kts | 153° |
| 2026-05-05 06:54 | -38.00322 | 144.85628 | 17317 ft | 378 kts | 153° |
| 2026-05-05 06:54 | -38.02629 | 144.87250 | 17997 ft | 381 kts | 153° |
| 2026-05-05 06:54 | -38.04958 | 144.88887 | 18633 ft | 385 kts | 153° |
| 2026-05-05 06:55 | -38.07308 | 144.90542 | 19206 ft | 388 kts | 153° |
| 2026-05-05 06:55 | -38.09674 | 144.92210 | 19799 ft | 390 kts | 153° |
| 2026-05-05 06:55 | -38.12054 | 144.93888 | 20389 ft | 393 kts | 153° |
| 2026-05-05 06:55 | -38.14448 | 144.95581 | 20969 ft | 395 kts | 153° |
| 2026-05-05 06:56 | -38.16869 | 144.97292 | 21536 ft | 398 kts | 153° |
| 2026-05-05 06:56 | -38.19305 | 144.99014 | 22062 ft | 402 kts | 154° |
| 2026-05-05 06:56 | -38.21723 | 145.00724 | 22559 ft | 404 kts | 154° |
| 2026-05-05 06:56 | -38.24192 | 145.02472 | 23078 ft | 408 kts | 154° |
| 2026-05-05 06:57 | -38.26678 | 145.04232 | 23620 ft | 410 kts | 154° |
| 2026-05-05 06:57 | -38.29181 | 145.06007 | 24075 ft | 413 kts | 154° |
| 2026-05-05 06:57 | -38.31692 | 145.07790 | 24499 ft | 415 kts | 154° |
| 2026-05-05 06:57 | -38.34226 | 145.09590 | 24914 ft | 418 kts | 154° |
| 2026-05-05 06:58 | -38.36777 | 145.11403 | 25333 ft | 420 kts | 154° |
| 2026-05-05 06:58 | -38.39348 | 145.13232 | 25742 ft | 422 kts | 154° |
| 2026-05-05 06:58 | -38.41916 | 145.15060 | 26131 ft | 425 kts | 154° |
| 2026-05-05 06:58 | -38.44477 | 145.16885 | 26525 ft | 427 kts | 154° |
| 2026-05-05 06:59 | -38.47085 | 145.18744 | 26886 ft | 431 kts | 154° |
| 2026-05-05 06:59 | -38.49707 | 145.20611 | 27291 ft | 432 kts | 155° |
| 2026-05-05 06:59 | -38.52404 | 145.22251 | 27780 ft | 427 kts | 162° |
| 2026-05-05 06:59 | -38.55197 | 145.23515 | 28377 ft | 423 kts | 165° |
| 2026-05-05 07:00 | -38.57977 | 145.24701 | 28945 ft | 420 kts | 165° |
| 2026-05-05 07:00 | -38.60752 | 145.25872 | 29439 ft | 420 kts | 165° |
| 2026-05-05 07:00 | -38.63525 | 145.27053 | 29952 ft | 419 kts | 165° |
| 2026-05-05 07:00 | -38.66278 | 145.28236 | 30482 ft | 416 kts | 165° |
| 2026-05-05 07:01 | -38.69017 | 145.29422 | 30887 ft | 416 kts | 165° |
| 2026-05-05 07:01 | -38.71764 | 145.30625 | 31181 ft | 418 kts | 165° |
| 2026-05-05 07:01 | -38.74535 | 145.31837 | 31174 ft | 422 kts | 165° |
| 2026-05-05 07:02 | -38.80030 | 145.34265 | 31180 ft | 416 kts | 165° |
| 2026-05-05 07:02 | -38.85494 | 145.36688 | 31192 ft | 416 kts | 165° |
| 2026-05-05 07:03 | -38.90973 | 145.39114 | 31200 ft | 418 kts | 165° |
| 2026-05-05 07:03 | -38.96480 | 145.41562 | 31189 ft | 419 kts | 165° |
| 2026-05-05 07:04 | -39.01997 | 145.44014 | 31179 ft | 419 kts | 165° |
| 2026-05-05 07:04 | -39.07516 | 145.46479 | 31178 ft | 419 kts | 165° |
| 2026-05-05 07:05 | -39.13011 | 145.48932 | 31178 ft | 421 kts | 165° |
| 2026-05-05 07:05 | -39.18535 | 145.51399 | 31175 ft | 419 kts | 165° |
| 2026-05-05 07:06 | -39.24042 | 145.53874 | 31169 ft | 418 kts | 165° |
| 2026-05-05 07:06 | -39.29525 | 145.56328 | 31163 ft | 416 kts | 165° |
| 2026-05-05 07:07 | -39.34985 | 145.58772 | 31163 ft | 414 kts | 165° |
| 2026-05-05 07:07 | -39.40387 | 145.61204 | 31162 ft | 414 kts | 165° |
| 2026-05-05 07:08 | -39.45840 | 145.63661 | 31156 ft | 415 kts | 165° |
| 2026-05-05 07:08 | -39.51309 | 145.66127 | 31162 ft | 416 kts | 165° |
| 2026-05-05 07:09 | -39.56787 | 145.68607 | 31157 ft | 417 kts | 165° |
| 2026-05-05 07:09 | -39.62272 | 145.71091 | 31151 ft | 417 kts | 165° |
| 2026-05-05 07:10 | -39.67751 | 145.73580 | 31156 ft | 417 kts | 165° |
| 2026-05-05 07:10 | -39.73204 | 145.76059 | 31141 ft | 418 kts | 165° |
| 2026-05-05 07:11 | -39.78698 | 145.78552 | 31146 ft | 416 kts | 166° |
| 2026-05-05 07:11 | -39.84174 | 145.81055 | 31143 ft | 417 kts | 166° |
| 2026-05-05 07:12 | -39.89646 | 145.83556 | 31145 ft | 416 kts | 166° |
| 2026-05-05 07:12 | -39.95112 | 145.86057 | 31150 ft | 417 kts | 166° |
| 2026-05-05 07:13 | -40.00584 | 145.88567 | 31130 ft | 416 kts | 166° |
| 2026-05-05 07:13 | -40.06050 | 145.91096 | 31152 ft | 417 kts | 166° |
| 2026-05-05 07:14 | -40.11515 | 145.93632 | 31130 ft | 417 kts | 166° |
| 2026-05-05 07:14 | -40.16992 | 145.96173 | 31132 ft | 418 kts | 166° |
| 2026-05-05 07:15 | -40.22469 | 145.98727 | 31129 ft | 418 kts | 166° |
| 2026-05-05 07:15 | -40.27904 | 146.01267 | 31129 ft | 417 kts | 166° |
| 2026-05-05 07:16 | -40.33381 | 146.03825 | 31128 ft | 417 kts | 166° |
| 2026-05-05 07:16 | -40.38852 | 146.06385 | 31122 ft | 418 kts | 166° |
| 2026-05-05 07:17 | -40.44337 | 146.08953 | 31006 ft | 421 kts | 166° |
| 2026-05-05 07:17 | -40.47107 | 146.10250 | 30495 ft | 421 kts | 166° |
| 2026-05-05 07:17 | -40.49865 | 146.11547 | 29853 ft | 421 kts | 166° |
| 2026-05-05 07:17 | -40.52616 | 146.12843 | 29329 ft | 417 kts | 166° |
| 2026-05-05 07:18 | -40.55334 | 146.14127 | 28818 ft | 412 kts | 166° |
| 2026-05-05 07:18 | -40.58008 | 146.15390 | 28353 ft | 406 kts | 166° |
| 2026-05-05 07:18 | -40.60664 | 146.16641 | 27885 ft | 402 kts | 166° |
| 2026-05-05 07:18 | -40.63288 | 146.17877 | 27418 ft | 399 kts | 166° |
| 2026-05-05 07:19 | -40.65856 | 146.19089 | 26964 ft | 395 kts | 166° |
| 2026-05-05 07:19 | -40.68447 | 146.20313 | 26506 ft | 392 kts | 166° |
| 2026-05-05 07:19 | -40.71007 | 146.21527 | 26085 ft | 389 kts | 166° |
| 2026-05-05 07:19 | -40.73554 | 146.22731 | 25634 ft | 387 kts | 166° |
| 2026-05-05 07:20 | -40.76080 | 146.23924 | 25190 ft | 385 kts | 166° |
| 2026-05-05 07:20 | -40.78588 | 146.25110 | 24753 ft | 382 kts | 166° |
| 2026-05-05 07:20 | -40.81082 | 146.26290 | 24325 ft | 380 kts | 166° |
| 2026-05-05 07:20 | -40.83572 | 146.27470 | 23887 ft | 379 kts | 166° |
| 2026-05-05 07:21 | -40.86047 | 146.28639 | 23400 ft | 377 kts | 166° |
| 2026-05-05 07:21 | -40.88504 | 146.29804 | 22924 ft | 374 kts | 166° |
| 2026-05-05 07:21 | -40.90918 | 146.30952 | 22482 ft | 372 kts | 166° |
| 2026-05-05 07:21 | -40.93353 | 146.32113 | 22048 ft | 369 kts | 166° |
| 2026-05-05 07:22 | -40.95762 | 146.33260 | 21622 ft | 367 kts | 166° |
| 2026-05-05 07:22 | -40.98160 | 146.34401 | 21196 ft | 365 kts | 166° |
| 2026-05-05 07:22 | -41.00546 | 146.35537 | 20771 ft | 363 kts | 166° |
| 2026-05-05 07:22 | -41.02914 | 146.36665 | 20356 ft | 361 kts | 166° |
| 2026-05-05 07:23 | -41.05272 | 146.37793 | 19952 ft | 359 kts | 166° |
| 2026-05-05 07:23 | -41.07620 | 146.38913 | 19546 ft | 359 kts | 166° |
| 2026-05-05 07:23 | -41.09978 | 146.40038 | 19134 ft | 360 kts | 166° |
| 2026-05-05 07:23 | -41.12354 | 146.41172 | 18728 ft | 367 kts | 166° |
| 2026-05-05 07:24 | -41.14770 | 146.42339 | 18277 ft | 374 kts | 163° |
| 2026-05-05 07:24 | -41.17092 | 146.43973 | 17784 ft | 380 kts | 151° |
| 2026-05-05 07:24 | -41.19144 | 146.46197 | 17336 ft | 383 kts | 140° |
| 2026-05-05 07:24 | -41.20973 | 146.48690 | 16917 ft | 381 kts | 138° |
| 2026-05-05 07:25 | -41.22796 | 146.51235 | 16479 ft | 379 kts | 138° |
| 2026-05-05 07:25 | -41.24601 | 146.53767 | 16065 ft | 375 kts | 138° |
| 2026-05-05 07:25 | -41.26393 | 146.56268 | 15643 ft | 371 kts | 138° |
| 2026-05-05 07:25 | -41.28176 | 146.58738 | 15231 ft | 368 kts | 138° |
| 2026-05-05 07:26 | -41.29946 | 146.61199 | 14846 ft | 367 kts | 138° |
| 2026-05-05 07:26 | -41.31706 | 146.63645 | 14436 ft | 365 kts | 138° |
| 2026-05-05 07:26 | -41.33459 | 146.66074 | 14031 ft | 363 kts | 138° |
| 2026-05-05 07:26 | -41.35207 | 146.68493 | 13585 ft | 361 kts | 138° |
| 2026-05-05 07:27 | -41.36948 | 146.70900 | 13140 ft | 358 kts | 138° |
| 2026-05-05 07:27 | -41.38670 | 146.73280 | 12725 ft | 356 kts | 138° |
| 2026-05-05 07:27 | -41.40377 | 146.75648 | 12323 ft | 353 kts | 138° |
| 2026-05-05 07:27 | -41.42077 | 146.78010 | 11912 ft | 352 kts | 138° |
| 2026-05-05 07:28 | -41.43739 | 146.80309 | 11514 ft | 350 kts | 138° |
| 2026-05-05 07:28 | -41.45398 | 146.82611 | 11137 ft | 348 kts | 137° |
| 2026-05-05 07:28 | -41.47064 | 146.84933 | 10750 ft | 345 kts | 137° |
| 2026-05-05 07:28 | -41.48711 | 146.87229 | 10586 ft | 338 kts | 137° |
| 2026-05-05 07:29 | -41.50313 | 146.89468 | 10413 ft | 328 kts | 137° |
| 2026-05-05 07:29 | -41.51845 | 146.91606 | 10271 ft | 319 kts | 137° |
| 2026-05-05 07:29 | -41.53368 | 146.93730 | 10123 ft | 310 kts | 137° |
| 2026-05-05 07:29 | -41.54839 | 146.95782 | 9959 ft | 303 kts | 137° |
| 2026-05-05 07:30 | -41.56294 | 146.97811 | 9639 ft | 302 kts | 137° |
| 2026-05-05 07:30 | -41.59172 | 147.01839 | 9065 ft | 297 kts | 137° |
| 2026-05-05 07:30 | -41.60594 | 147.03822 | 8778 ft | 297 kts | 136° |
| 2026-05-05 07:31 | -41.61995 | 147.05789 | 8506 ft | 294 kts | 136° |
| 2026-05-05 07:31 | -41.63393 | 147.07753 | 8213 ft | 289 kts | 136° |
| 2026-05-05 07:31 | -41.64766 | 147.09680 | 7931 ft | 285 kts | 136° |
| 2026-05-05 07:31 | -41.66136 | 147.11598 | 7632 ft | 285 kts | 135° |
| 2026-05-05 07:32 | -41.67506 | 147.13516 | 7349 ft | 284 kts | 135° |
| 2026-05-05 07:32 | -41.68857 | 147.15421 | 7064 ft | 283 kts | 135° |
| 2026-05-05 07:32 | -41.70213 | 147.17312 | 6793 ft | 281 kts | 134° |
| 2026-05-05 07:32 | -41.71548 | 147.19199 | 6492 ft | 277 kts | 134° |
| 2026-05-05 07:33 | -41.72875 | 147.21079 | 6287 ft | 275 kts | 134° |
| 2026-05-05 07:33 | -41.74180 | 147.22919 | 6158 ft | 270 kts | 134° |
| 2026-05-05 07:33 | -41.75464 | 147.24727 | 6021 ft | 264 kts | 134° |
| 2026-05-05 07:33 | -41.76676 | 147.26548 | 5894 ft | 259 kts | 122° |
| 2026-05-05 07:34 | -41.77155 | 147.28769 | 5816 ft | 248 kts | 89° |
| 2026-05-05 07:34 | -41.76782 | 147.30989 | 5524 ft | 245 kts | 62° |
| 2026-05-05 07:34 | -41.75792 | 147.32818 | 5228 ft | 243 kts | 39° |
| 2026-05-05 07:34 | -41.74489 | 147.34206 | 4950 ft | 237 kts | 34° |
| 2026-05-05 07:35 | -41.73109 | 147.35352 | 4608 ft | 230 kts | 15° |
| 2026-05-05 07:35 | -41.71554 | 147.35418 | 4295 ft | 221 kts | 342° |
| 2026-05-05 07:35 | -41.70165 | 147.34634 | 4010 ft | 214 kts | 326° |
| 2026-05-05 07:35 | -41.68938 | 147.33537 | 3744 ft | 209 kts | 324° |
| 2026-05-05 07:36 | -41.67733 | 147.32474 | 3478 ft | 204 kts | 324° |
| 2026-05-05 07:36 | -41.66562 | 147.31458 | 3189 ft | 197 kts | 326° |
| 2026-05-05 07:36 | -41.65421 | 147.30474 | 2908 ft | 192 kts | 326° |
| 2026-05-05 07:36 | -41.64332 | 147.29535 | 2662 ft | 180 kts | 325° |
| 2026-05-05 07:37 | -41.63308 | 147.28655 | 2416 ft | 169 kts | 325° |
| 2026-05-05 07:37 | -41.62352 | 147.27828 | 2210 ft | 156 kts | 327° |
| 2026-05-05 07:37 | -41.61472 | 147.27071 | 2006 ft | 147 kts | 327° |
| 2026-05-05 07:37 | -41.60652 | 147.26365 | 1864 ft | 140 kts | 327° |
| 2026-05-05 07:38 | -41.59840 | 147.25668 | 1658 ft | 136 kts | 327° |
| 2026-05-05 07:38 | -41.59037 | 147.24978 | 1467 ft | 136 kts | 327° |
| 2026-05-05 07:38 | -41.58236 | 147.24293 | 1283 ft | 135 kts | 327° |
| 2026-05-05 07:38 | -41.57450 | 147.23626 | 1110 ft | 136 kts | 328° |
| 2026-05-05 07:39 | -41.56673 | 147.22993 | 981 ft | 128 kts | 327° |
| 2026-05-05 07:39 | -41.55933 | 147.22327 | 787 ft | 129 kts | 327° |
| 2026-05-05 07:39 | -41.55174 | 147.21672 | 623 ft | 130 kts | 328° |
| 2026-05-05 07:39 | -41.54464 | 147.21065 | 593 ft | 103 kts | 327° |
| 2026-05-05 07:40 | -41.54041 | 147.20702 | 589 ft | 43 kts | 327° |
| 2026-05-05 07:40 | -41.53880 | 147.20564 | 591 ft | 36 kts | 327° |
| 2026-05-05 07:40 | -41.53758 | 147.20458 | 594 ft | 17 kts | 323° |
| 2026-05-05 07:40 | -41.53753 | 147.20339 | 593 ft | 4 kts | 217° |
| 2026-05-05 07:41 | -41.53800 | 147.20321 | 591 ft | 7 kts | 185° |
| 2026-05-05 07:41 | -41.53846 | 147.20345 | 590 ft | 8 kts | 148° |
| 2026-05-05 07:41 | -41.53877 | 147.20372 | 589 ft | 9 kts | 147° |
| 2026-05-05 07:41 | -41.53934 | 147.20419 | 586 ft | 11 kts | 148° |
| 2026-05-05 07:42 | -41.53999 | 147.20473 | 585 ft | 11 kts | 148° |
| 2026-05-05 07:42 | -41.54065 | 147.20530 | 583 ft | 12 kts | 145° |
| 2026-05-05 07:42 | -41.54135 | 147.20591 | 582 ft | 12 kts | 147° |
| 2026-05-05 07:42 | -41.54204 | 147.20649 | 582 ft | 12 kts | 147° |
| 2026-05-05 07:43 | -41.54270 | 147.20706 | 583 ft | 11 kts | 147° |
| 2026-05-05 07:43 | -41.54311 | 147.20738 | 583 ft | 1 kts | 172° |
| 2026-05-05 07:43 | -41.54319 | 147.20735 | 583 ft | 1 kts | 197° |
| 2026-05-05 07:43 | -41.54324 | 147.20726 | 583 ft | 1 kts | 243° |
| 2026-05-05 07:44 | -41.54323 | 147.20711 | 582 ft | 2 kts | 279° |
| 2026-05-05 07:44 | -41.54318 | 147.20692 | 582 ft | 2 kts | 291° |
| 2026-05-05 07:44 | -41.54314 | 147.20678 | 582 ft | 2 kts | 294° |
| 2026-05-05 07:44 | -41.54313 | 147.20676 | 582 ft | 0 kts | 294° |